createdAt,value
2019-05-06T00:02:04.548Z,78.25
2019-05-06T00:04:54.211Z,88.62
2019-05-06T00:07:45.442Z,112.85
2019-05-06T00:10:35.394Z,98.00
2019-05-06T00:13:24.195Z,85.47
2019-05-06T00:16:14.331Z,79.27
2019-05-06T00:19:04.693Z,78.52
2019-05-06T00:21:54.100Z,72.72
2019-05-06T00:25:00.127Z,103.25
2019-05-06T00:28:06.953Z,75.00
2019-05-06T00:31:09.531Z,72.05
2019-05-06T00:33:46.459Z,71.90
2019-05-06T00:36:35.043Z,83.10
2019-05-06T00:39:30.819Z,71.85
2019-05-06T00:42:24.603Z,68.42
2019-05-06T00:45:13.652Z,71.10
2019-05-06T00:48:04.480Z,69.77
2019-05-06T00:50:53.639Z,73.30
2019-05-06T00:53:44.191Z,71.90
2019-05-06T00:56:33.989Z,78.07
2019-05-06T00:59:23.848Z,71.53
2019-05-06T01:02:14.041Z,65.20
2019-05-06T01:05:04.386Z,70.12
2019-05-06T01:07:54.735Z,72.40
2019-05-06T01:10:42.066Z,68.78
2019-05-06T01:13:41.002Z,66.02
2019-05-06T01:16:29.371Z,61.77
2019-05-06T01:19:17.959Z,68.20
2019-05-06T01:22:05.964Z,68.12
2019-05-06T01:24:55.821Z,63.00
2019-05-06T01:27:44.469Z,88.07
2019-05-06T01:30:33.698Z,59.93
2019-05-06T01:33:24.170Z,71.42
2019-05-06T01:36:14.211Z,66.70
2019-05-06T01:39:21.800Z,64.42
2019-05-06T01:42:14.442Z,78.62
2019-05-06T01:45:04.605Z,66.17
2019-05-06T01:47:54.354Z,65.37
2019-05-06T01:50:44.440Z,64.25
2019-05-06T01:53:33.887Z,67.47
2019-05-06T01:56:24.141Z,105.52
2019-05-06T01:59:14.028Z,87.53
2019-05-06T02:02:04.291Z,117.15
2019-05-06T02:04:54.085Z,66.15
2019-05-06T02:07:44.183Z,68.65
2019-05-06T02:10:31.918Z,72.50
2019-05-06T02:13:20.500Z,57.35
2019-05-06T02:16:09.100Z,60.98
2019-05-06T02:18:57.758Z,73.75
2019-05-06T02:21:47.512Z,73.42
2019-05-06T02:24:49.731Z,56.73
2019-05-06T02:27:38.084Z,57.03
2019-05-06T02:30:45.351Z,57.55
2019-05-06T02:33:35.568Z,57.50
2019-05-06T02:36:25.868Z,58.75
2019-05-06T02:39:14.381Z,56.85
2019-05-06T02:42:04.025Z,57.30
2019-05-06T02:44:54.113Z,57.65
2019-05-06T02:47:49.924Z,59.85
2019-05-06T02:50:45.994Z,59.75
2019-05-06T02:53:34.418Z,56.83
2019-05-06T02:56:24.023Z,60.12
2019-05-06T02:59:13.073Z,55.95
2019-05-06T03:02:03.314Z,56.63
2019-05-06T03:04:52.845Z,56.20
2019-05-06T03:07:43.489Z,55.38
2019-05-06T03:10:32.934Z,62.48
2019-05-06T03:13:23.631Z,55.70
2019-05-06T03:16:14.123Z,55.88
2019-05-06T03:19:04.080Z,57.95
2019-05-06T03:22:05.137Z,54.70
2019-05-06T03:24:55.534Z,64.92
2019-05-06T03:27:47.028Z,59.75
2019-05-06T03:30:36.292Z,54.33
2019-05-06T03:33:55.375Z,59.80
2019-05-06T03:36:18.590Z,58.80
2019-05-06T03:39:03.181Z,55.70
2019-05-06T03:41:53.811Z,57.78
2019-05-06T03:44:43.779Z,55.83
2019-05-06T03:47:34.738Z,55.78
2019-05-06T03:50:24.067Z,111.75
2019-05-06T03:53:14.071Z,57.62
2019-05-06T03:56:03.511Z,56.53
2019-05-06T03:58:53.620Z,74.25
2019-05-06T04:01:43.046Z,71.80
2019-05-06T04:04:33.240Z,56.60
2019-05-06T04:07:23.383Z,63.10
2019-05-06T04:10:13.715Z,67.20
2019-05-06T04:13:04.170Z,58.10
2019-05-06T04:15:56.159Z,59.27
2019-05-06T04:21:45.396Z,100.07
2019-05-06T04:24:35.397Z,62.33
2019-05-06T04:27:28.303Z,162.50
2019-05-06T04:30:18.486Z,250.57
2019-05-06T04:33:07.208Z,176.12
2019-05-06T04:35:55.481Z,144.60
2019-05-06T04:38:43.730Z,162.90
2019-05-06T04:41:34.064Z,156.57
2019-05-06T04:44:23.788Z,144.55
2019-05-06T04:47:14.711Z,141.65
2019-05-06T04:50:04.789Z,136.07
2019-05-06T04:52:53.685Z,137.55
2019-05-06T04:55:43.573Z,125.60
2019-05-06T04:58:33.554Z,125.85
2019-05-06T05:01:23.157Z,129.75
2019-05-06T05:04:26.887Z,116.35
2019-05-06T05:07:03.351Z,114.03
2019-05-06T05:09:53.883Z,114.42
2019-05-06T05:13:00.093Z,152.38
2019-05-06T05:15:59.134Z,1001.07
2019-05-06T05:19:07.047Z,404.65
2019-05-06T05:21:56.871Z,192.82
2019-05-06T05:24:45.417Z,250.55
2019-05-06T05:27:33.918Z,244.30
2019-05-06T05:30:22.648Z,252.70
2019-05-06T05:33:12.236Z,248.45
2019-05-06T05:36:02.083Z,236.18
2019-05-06T05:38:52.250Z,238.52
2019-05-06T05:41:42.763Z,233.93
2019-05-06T05:44:32.441Z,238.62
2019-05-06T05:47:22.072Z,229.60
2019-05-06T05:50:18.704Z,214.95
2019-05-06T05:53:06.974Z,207.83
2019-05-06T05:55:55.370Z,229.30
2019-05-06T05:58:44.900Z,203.07
2019-05-06T06:01:33.258Z,196.47
2019-05-06T06:04:22.477Z,185.73
2019-05-06T06:07:12.167Z,179.38
2019-05-06T06:10:08.076Z,209.67
2019-05-06T06:12:56.375Z,1139.43
2019-05-06T06:16:02.933Z,730.80
2019-05-06T06:18:59.400Z,303.27
2019-05-06T06:21:49.287Z,349.18
2019-05-06T06:24:37.805Z,368.57
2019-05-06T06:27:26.393Z,357.92
2019-05-06T06:30:14.956Z,344.73
2019-05-06T06:33:03.417Z,322.70
2019-05-06T06:35:54.419Z,312.02
2019-05-06T06:38:47.459Z,312.52
2019-05-06T06:41:35.548Z,328.45
2019-05-06T06:44:28.438Z,302.43
2019-05-06T06:47:16.916Z,305.90
2019-05-06T06:50:05.799Z,359.80
2019-05-06T06:52:54.520Z,306.00
2019-05-06T06:55:43.677Z,302.43
2019-05-06T06:58:37.051Z,312.48
2019-05-06T07:01:30.111Z,306.82
2019-05-06T07:04:23.599Z,294.30
2019-05-06T07:07:12.990Z,285.43
2019-05-06T07:10:02.618Z,283.85
2019-05-06T07:12:53.187Z,267.13
2019-05-06T07:15:42.651Z,257.75
2019-05-06T07:18:33.068Z,250.30
2019-05-06T07:21:22.721Z,248.28
2019-05-06T07:24:13.079Z,233.00
2019-05-06T07:27:03.240Z,250.75
2019-05-06T07:29:52.260Z,243.70
2019-05-06T07:32:42.371Z,282.32
2019-05-06T07:35:38.473Z,244.10
2019-05-06T07:38:22.770Z,242.65
2019-05-06T07:41:15.188Z,256.63
2019-05-06T07:44:04.976Z,267.95
2019-05-06T07:47:12.666Z,280.37
2019-05-06T07:50:13.011Z,255.75
2019-05-06T07:53:08.050Z,246.32
2019-05-06T07:55:56.407Z,269.20
2019-05-06T07:58:45.899Z,260.15
2019-05-06T08:01:33.919Z,233.28
2019-05-06T08:04:23.060Z,231.13
2019-05-06T08:07:12.609Z,246.97
2019-05-06T08:10:02.275Z,217.03
2019-05-06T08:12:52.857Z,224.95
2019-05-06T08:15:42.096Z,228.60
2019-05-06T08:18:32.809Z,247.98
2019-05-06T08:21:22.928Z,238.60
2019-05-06T08:24:12.047Z,235.95
2019-05-06T08:27:02.478Z,229.20
2019-05-06T08:29:52.673Z,220.20
2019-05-06T08:32:42.463Z,221.95
2019-05-06T08:35:33.092Z,195.40
2019-05-06T08:38:22.636Z,193.07
2019-05-06T08:41:11.871Z,206.10
2019-05-06T08:44:02.414Z,171.87
2019-05-06T08:46:50.448Z,164.55
2019-05-06T08:49:56.544Z,164.90
2019-05-06T08:53:05.119Z,153.45
2019-05-06T08:55:53.459Z,152.12
2019-05-06T08:58:45.833Z,142.65
2019-05-06T09:01:38.748Z,148.35
2019-05-06T09:04:28.332Z,140.52
2019-05-06T09:07:16.567Z,123.78
2019-05-06T09:10:06.944Z,129.30
2019-05-06T09:12:55.136Z,128.42
2019-05-06T09:15:43.409Z,120.53
2019-05-06T09:18:32.906Z,119.53
2019-05-06T09:21:22.678Z,131.45
2019-05-06T09:24:12.821Z,131.25
2019-05-06T09:27:09.009Z,169.00
2019-05-06T09:29:57.222Z,179.70
2019-05-06T09:32:45.608Z,173.97
2019-05-06T09:35:33.704Z,211.30
2019-05-06T09:38:22.849Z,191.50
2019-05-06T09:41:12.414Z,185.85
2019-05-06T09:44:03.182Z,163.22
2019-05-06T09:46:53.132Z,168.37
2019-05-06T09:49:43.560Z,178.15
2019-05-06T09:52:33.282Z,371.80
2019-05-06T09:55:32.756Z,439.60
2019-05-06T09:58:22.848Z,212.85
2019-05-06T10:01:13.081Z,239.78
2019-05-06T10:04:03.475Z,218.22
2019-05-06T10:06:59.463Z,219.90
2019-05-06T10:09:43.468Z,208.35
2019-05-06T10:12:32.864Z,197.17
2019-05-06T10:15:21.516Z,209.12
2019-05-06T10:18:13.123Z,389.48
2019-05-06T10:21:00.567Z,270.07
2019-05-06T10:23:48.569Z,258.80
2019-05-06T10:26:38.712Z,302.82
2019-05-06T10:29:40.365Z,672.23
2019-05-06T10:32:39.270Z,638.03
2019-05-06T10:35:29.665Z,371.48
2019-05-06T10:38:26.785Z,324.73
2019-05-06T10:41:18.040Z,675.75
2019-05-06T10:44:12.282Z,652.52
2019-05-06T10:47:02.824Z,603.25
2019-05-06T10:49:52.945Z,469.05
2019-05-06T10:52:59.866Z,470.68
2019-05-06T10:55:53.633Z,969.80
2019-05-06T10:58:44.002Z,571.33
2019-05-06T11:01:46.355Z,503.55
2019-05-06T11:04:35.199Z,476.90
2019-05-06T11:07:31.857Z,596.05
2019-05-06T11:10:23.785Z,522.67
2019-05-06T11:13:03.574Z,382.98
2019-05-06T11:15:55.071Z,395.10
2019-05-06T11:18:42.629Z,386.35
2019-05-06T11:21:32.851Z,355.83
2019-05-06T11:24:23.147Z,430.33
2019-05-06T11:27:25.231Z,455.15
2019-05-06T11:30:02.811Z,422.93
2019-05-06T11:33:04.122Z,440.12
2019-05-06T11:35:54.380Z,408.60
2019-05-06T11:38:43.243Z,385.48
2019-05-06T11:41:32.257Z,370.15
2019-05-06T11:44:23.571Z,382.60
2019-05-06T11:47:12.502Z,350.75
2019-05-06T11:50:02.510Z,334.60
2019-05-06T11:52:53.079Z,324.45
2019-05-06T11:55:40.625Z,293.25
2019-05-06T11:58:42.422Z,298.10
2019-05-06T12:01:32.772Z,300.20
2019-05-06T12:04:22.813Z,304.10
2019-05-06T12:07:15.452Z,328.83
2019-05-06T12:10:02.565Z,341.60
2019-05-06T12:12:53.357Z,390.55
2019-05-06T12:15:42.409Z,441.85
2019-05-06T12:18:30.412Z,474.45
2019-05-06T12:21:19.612Z,418.85
2019-05-06T12:24:07.920Z,404.92
2019-05-06T12:26:56.152Z,421.27
2019-05-06T12:29:44.683Z,413.48
2019-05-06T12:32:34.519Z,373.13
2019-05-06T12:35:23.455Z,370.17
2019-05-06T12:38:29.623Z,369.10
2019-05-06T12:41:06.564Z,419.02
2019-05-06T12:43:56.431Z,508.70
2019-05-06T12:47:04.615Z,417.22
2019-05-06T12:49:53.498Z,435.40
2019-05-06T12:52:44.110Z,424.02
2019-05-06T12:55:33.665Z,476.57
2019-05-06T12:58:23.353Z,466.23
2019-05-06T13:01:13.629Z,479.77
2019-05-06T13:04:04.564Z,460.37
2019-05-06T13:06:52.192Z,474.23
2019-05-06T13:09:43.262Z,439.87
2019-05-06T13:12:33.741Z,475.60
2019-05-06T13:15:24.343Z,509.05
2019-05-06T13:18:15.273Z,525.58
2019-05-06T13:21:06.459Z,492.98
2019-05-06T13:23:55.151Z,475.18
2019-05-06T13:26:43.277Z,453.75
2019-05-06T13:29:35.560Z,448.95
2019-05-06T13:32:26.009Z,510.90
2019-05-06T13:35:14.122Z,556.95
2019-05-06T13:38:03.294Z,512.80
2019-05-06T13:40:57.076Z,517.53
2019-05-06T13:43:43.692Z,512.98
2019-05-06T13:46:33.695Z,488.98
2019-05-06T13:49:29.808Z,491.10
2019-05-06T13:52:18.899Z,535.02
2019-05-06T13:55:08.149Z,532.85
2019-05-06T13:57:57.598Z,514.50
2019-05-06T14:00:45.985Z,519.70
2019-05-06T14:03:34.149Z,527.47
2019-05-06T14:06:22.657Z,582.47
2019-05-06T14:09:27.952Z,546.50
2019-05-06T14:12:02.732Z,570.60
2019-05-06T14:14:52.658Z,569.05
2019-05-06T14:17:42.406Z,551.35
2019-05-06T14:20:31.022Z,526.13
2019-05-06T14:23:21.589Z,517.55
2019-05-06T14:26:12.618Z,498.40
2019-05-06T14:29:08.811Z,589.78
2019-05-06T14:31:58.209Z,536.90
2019-05-06T14:34:46.676Z,551.70
2019-05-06T14:37:35.004Z,539.58
2019-05-06T14:40:25.137Z,527.10
2019-05-06T14:43:13.849Z,628.75
2019-05-06T14:46:02.607Z,571.98
2019-05-06T14:48:53.271Z,583.62
2019-05-06T14:51:42.618Z,554.42
2019-05-06T14:54:32.994Z,556.67
2019-05-06T14:57:22.786Z,563.58
2019-05-06T15:00:13.369Z,526.87
2019-05-06T15:03:02.267Z,518.83
2019-05-06T15:05:50.932Z,509.50
2019-05-06T15:08:42.615Z,486.35
2019-05-06T15:11:29.835Z,503.52
2019-05-06T15:14:18.187Z,508.55
2019-05-06T15:17:06.688Z,712.10
2019-05-06T15:19:55.040Z,652.58
2019-05-06T15:22:43.277Z,549.73
2019-05-06T15:25:34.803Z,644.62
2019-05-06T15:28:23.598Z,586.08
2019-05-06T15:31:13.677Z,554.48
2019-05-06T15:34:03.520Z,531.92
2019-05-06T15:37:06.895Z,516.80
2019-05-06T15:39:55.371Z,507.40
2019-05-06T15:42:43.741Z,495.75
2019-05-06T15:45:32.487Z,519.83
2019-05-06T15:48:22.148Z,484.48
2019-05-06T15:51:12.213Z,467.77
2019-05-06T15:54:02.602Z,491.08
2019-05-06T15:56:52.986Z,516.00
2019-05-06T15:59:43.932Z,767.25
2019-05-06T16:02:30.597Z,641.42
2019-05-06T16:05:20.851Z,559.95
2019-05-06T16:08:08.916Z,558.55
2019-05-06T16:10:59.116Z,564.42
2019-05-06T16:13:47.847Z,559.42
2019-05-06T16:16:36.255Z,968.70
2019-05-06T16:19:24.687Z,848.08
2019-05-06T16:22:12.939Z,646.95
2019-05-06T16:25:21.418Z,641.48
2019-05-06T16:28:12.929Z,651.75
2019-05-06T16:31:12.968Z,621.48
2019-05-06T16:34:05.013Z,590.30
2019-05-06T16:36:54.068Z,568.30
2019-05-06T16:39:42.165Z,583.60
2019-05-06T16:42:30.655Z,803.80
2019-05-06T16:45:19.056Z,743.40
2019-05-06T16:48:07.290Z,618.40
2019-05-06T16:50:55.591Z,567.87
2019-05-06T16:53:43.919Z,641.45
2019-05-06T16:56:44.609Z,592.03
2019-05-06T16:59:35.117Z,571.72
2019-05-06T17:02:26.635Z,576.80
2019-05-06T17:05:17.931Z,567.40
2019-05-06T17:08:06.484Z,558.15
2019-05-06T17:10:54.900Z,538.80
2019-05-06T17:13:44.676Z,536.70
2019-05-06T17:16:34.020Z,511.70
2019-05-06T17:19:23.809Z,484.75
2019-05-06T17:22:12.490Z,476.48
2019-05-06T17:25:02.419Z,406.43
2019-05-06T17:27:52.645Z,420.88
2019-05-06T17:30:43.167Z,526.95
2019-05-06T17:33:42.946Z,463.40
2019-05-06T17:36:33.527Z,482.65
2019-05-06T17:39:22.665Z,537.17
2019-05-06T17:42:11.293Z,577.60
2019-05-06T17:44:59.948Z,545.05
2019-05-06T17:47:49.753Z,502.55
2019-05-06T17:50:37.803Z,500.07
2019-05-06T17:53:26.259Z,490.85
2019-05-06T17:56:14.522Z,489.85
2019-05-06T17:59:03.341Z,482.68
2019-05-06T18:01:56.347Z,455.70
2019-05-06T18:04:44.917Z,460.37
2019-05-06T18:07:33.490Z,474.95
2019-05-06T18:10:22.207Z,605.87
2019-05-06T18:13:12.627Z,622.08
2019-05-06T18:16:00.670Z,525.53
2019-05-06T18:18:49.012Z,532.27
2019-05-06T18:21:37.483Z,513.90
2019-05-06T18:24:25.963Z,511.52
2019-05-06T18:27:14.284Z,492.95
2019-05-06T18:30:13.445Z,478.02
2019-05-06T18:32:53.061Z,503.32
2019-05-06T18:35:41.971Z,458.80
2019-05-06T18:38:33.790Z,448.58
2019-05-06T18:41:23.546Z,441.23
2019-05-06T18:44:13.624Z,434.07
2019-05-06T18:47:02.825Z,431.95
2019-05-06T18:49:52.335Z,414.73
2019-05-06T18:52:43.103Z,411.62
2019-05-06T18:55:33.084Z,415.82
2019-05-06T18:58:22.381Z,403.88
2019-05-06T19:01:13.214Z,380.90
2019-05-06T19:04:03.404Z,375.15
2019-05-06T19:07:08.837Z,365.65
2019-05-06T19:09:43.406Z,366.88
2019-05-06T19:12:40.295Z,350.65
2019-05-06T19:15:22.013Z,348.25
2019-05-06T19:18:12.809Z,345.23
2019-05-06T19:21:02.592Z,341.27
2019-05-06T19:23:52.321Z,338.95
2019-05-06T19:26:40.072Z,323.38
2019-05-06T19:29:29.459Z,316.20
2019-05-06T19:32:17.759Z,344.75
2019-05-06T19:35:05.820Z,318.67
2019-05-06T19:37:54.281Z,314.77
2019-05-06T19:40:43.745Z,330.65
2019-05-06T19:43:34.701Z,309.98
2019-05-06T19:46:25.741Z,296.55
2019-05-06T19:49:15.491Z,292.82
2019-05-06T19:52:05.243Z,290.65
2019-05-06T19:55:00.144Z,277.80
2019-05-06T19:57:48.840Z,282.23
2019-05-06T20:00:37.258Z,277.93
2019-05-06T20:03:25.764Z,268.95
2019-05-06T20:06:15.764Z,293.37
2019-05-06T20:09:23.113Z,258.27
2019-05-06T20:12:26.635Z,262.72
2019-05-06T20:15:33.542Z,249.00
2019-05-06T20:18:22.127Z,257.30
2019-05-06T20:21:10.460Z,249.67
2019-05-06T20:23:58.696Z,246.70
2019-05-06T20:26:46.864Z,247.05
2019-05-06T20:29:38.189Z,242.77
2019-05-06T20:32:26.318Z,238.50
2019-05-06T20:35:15.406Z,249.95
2019-05-06T20:38:03.732Z,229.07
2019-05-06T20:40:51.943Z,223.18
2019-05-06T20:43:42.549Z,218.33
2019-05-06T20:46:32.299Z,210.55
2019-05-06T20:49:22.920Z,210.00
2019-05-06T20:52:12.251Z,226.25
2019-05-06T20:55:02.884Z,213.07
2019-05-06T20:57:52.933Z,208.40
2019-05-06T21:00:42.941Z,212.25
2019-05-06T21:03:32.764Z,214.38
2019-05-06T21:06:22.557Z,188.47
2019-05-06T21:09:12.487Z,195.43
2019-05-06T21:12:02.939Z,195.43
2019-05-06T21:14:53.701Z,178.18
2019-05-06T21:17:43.332Z,183.35
2019-05-06T21:20:33.074Z,182.88
2019-05-06T21:23:22.894Z,193.45
2019-05-06T21:26:16.075Z,168.15
2019-05-06T21:29:05.379Z,191.03
2019-05-06T21:31:53.851Z,168.55
2019-05-06T21:34:43.249Z,159.37
2019-05-06T21:37:31.839Z,147.85
2019-05-06T21:40:20.039Z,138.57
2019-05-06T21:43:08.566Z,148.25
2019-05-06T21:45:56.814Z,137.40
2019-05-06T21:48:45.282Z,132.75
2019-05-06T21:51:35.508Z,137.72
2019-05-06T21:54:23.923Z,126.12
2019-05-06T21:57:12.337Z,135.55
2019-05-06T22:00:02.646Z,132.35
2019-05-06T22:02:53.064Z,126.15
2019-05-06T22:05:41.696Z,121.22
2019-05-06T22:08:32.656Z,117.65
2019-05-06T22:11:19.863Z,129.78
2019-05-06T22:14:08.228Z,125.22
2019-05-06T22:16:56.718Z,112.60
2019-05-06T22:19:45.502Z,126.55
2019-05-06T22:22:38.128Z,109.65
2019-05-06T22:28:34.809Z,125.90
2019-05-06T22:31:24.280Z,109.52
2019-05-06T22:34:13.472Z,111.88
2019-05-06T22:37:03.351Z,100.85
2019-05-06T22:39:52.732Z,109.20
2019-05-06T22:42:43.097Z,110.83
2019-05-06T22:45:34.332Z,96.10
2019-05-06T22:48:22.761Z,112.70
2019-05-06T22:51:12.334Z,100.20
2019-05-06T22:54:02.711Z,95.25
2019-05-06T22:56:52.407Z,92.80
2019-05-06T22:59:42.698Z,98.45
2019-05-06T23:06:45.594Z,96.30
2019-05-06T23:09:33.822Z,89.30
2019-05-06T23:12:23.120Z,115.45
2019-05-06T23:15:12.149Z,91.25
2019-05-06T23:18:02.312Z,91.10
2019-05-06T23:20:52.734Z,88.27
2019-05-06T23:23:43.585Z,93.70
2019-05-06T23:26:31.975Z,82.95
2019-05-06T23:29:22.306Z,80.07
2019-05-06T23:32:13.784Z,82.10
2019-05-06T23:34:59.924Z,81.63
2019-05-06T23:38:24.651Z,89.70
2019-05-06T23:41:49.667Z,79.77
2019-05-06T23:45:14.332Z,83.07
2019-05-06T23:48:39.055Z,78.42
2019-05-06T23:52:04.168Z,76.50
2019-05-06T23:55:28.975Z,81.75
2019-05-06T23:58:17.650Z,69.07
